sensor_id;sensor_type;location;lat;lon;timestamp;P1;durP1;ratioP1;P2;durP2;ratioP2
73859;SDS011;62197;51.632;13.700;2023-10-13T00:01:41;18.30;;;8.93;;
73859;SDS011;62197;51.632;13.700;2023-10-13T00:04:07;16.35;;;8.77;;
73859;SDS011;62197;51.632;13.700;2023-10-13T00:06:33;17.58;;;9.38;;
73859;SDS011;62197;51.632;13.700;2023-10-13T00:08:58;18.15;;;10.07;;
73859;SDS011;62197;51.632;13.700;2023-10-13T00:11:24;14.52;;;9.02;;
73859;SDS011;62197;51.632;13.700;2023-10-13T00:13:51;18.60;;;9.40;;
73859;SDS011;62197;51.632;13.700;2023-10-13T00:16:18;16.65;;;9.80;;
73859;SDS011;62197;51.632;13.700;2023-10-13T00:18:46;14.60;;;8.93;;
73859;SDS011;62197;51.632;13.700;2023-10-13T00:21:13;17.58;;;9.25;;
73859;SDS011;62197;51.632;13.700;2023-10-13T00:23:43;16.95;;;9.43;;
73859;SDS011;62197;51.632;13.700;2023-10-13T00:26:19;18.60;;;9.77;;
73859;SDS011;62197;51.632;13.700;2023-10-13T00:28:54;19.58;;;9.80;;
73859;SDS011;62197;51.632;13.700;2023-10-13T00:31:32;18.75;;;10.23;;
73859;SDS011;62197;51.632;13.700;2023-10-13T00:34:03;20.75;;;10.18;;
73859;SDS011;62197;51.632;13.700;2023-10-13T00:36:37;20.17;;;10.95;;
73859;SDS011;62197;51.632;13.700;2023-10-13T00:39:13;19.33;;;9.23;;
73859;SDS011;62197;51.632;13.700;2023-10-13T00:41:41;21.02;;;11.07;;
73859;SDS011;62197;51.632;13.700;2023-10-13T00:44:16;21.80;;;10.55;;
73859;SDS011;62197;51.632;13.700;2023-10-13T00:46:42;22.77;;;10.48;;
73859;SDS011;62197;51.632;13.700;2023-10-13T00:49:10;20.88;;;9.45;;
73859;SDS011;62197;51.632;13.700;2023-10-13T00:51:40;22.52;;;10.18;;
73859;SDS011;62197;51.632;13.700;2023-10-13T00:54:12;18.40;;;10.82;;
73859;SDS011;62197;51.632;13.700;2023-10-13T00:56:41;18.60;;;9.75;;
73859;SDS011;62197;51.632;13.700;2023-10-13T00:59:18;21.13;;;11.70;;
73859;SDS011;62197;51.632;13.700;2023-10-13T01:01:48;18.95;;;9.93;;
73859;SDS011;62197;51.632;13.700;2023-10-13T01:04:19;18.20;;;10.15;;
73859;SDS011;62197;51.632;13.700;2023-10-13T01:06:44;16.25;;;9.50;;
73859;SDS011;62197;51.632;13.700;2023-10-13T01:09:11;20.48;;;10.18;;
73859;SDS011;62197;51.632;13.700;2023-10-13T01:11:42;17.20;;;9.35;;
73859;SDS011;62197;51.632;13.700;2023-10-13T01:14:10;19.98;;;11.02;;
73859;SDS011;62197;51.632;13.700;2023-10-13T01:16:42;25.42;;;11.07;;
73859;SDS011;62197;51.632;13.700;2023-10-13T01:19:14;21.98;;;9.73;;
73859;SDS011;62197;51.632;13.700;2023-10-13T01:21:49;19.02;;;10.75;;
73859;SDS011;62197;51.632;13.700;2023-10-13T01:24:15;19.30;;;10.52;;
73859;SDS011;62197;51.632;13.700;2023-10-13T01:26:45;18.42;;;11.02;;
73859;SDS011;62197;51.632;13.700;2023-10-13T01:29:16;17.85;;;11.20;;
73859;SDS011;62197;51.632;13.700;2023-10-13T01:31:44;17.63;;;9.90;;
73859;SDS011;62197;51.632;13.700;2023-10-13T01:34:11;21.20;;;9.43;;
73859;SDS011;62197;51.632;13.700;2023-10-13T01:36:38;18.95;;;9.77;;
73859;SDS011;62197;51.632;13.700;2023-10-13T01:39:05;18.88;;;9.45;;
73859;SDS011;62197;51.632;13.700;2023-10-13T01:41:30;19.80;;;10.27;;
73859;SDS011;62197;51.632;13.700;2023-10-13T01:43:56;20.92;;;9.45;;
73859;SDS011;62197;51.632;13.700;2023-10-13T01:46:22;20.88;;;10.55;;
73859;SDS011;62197;51.632;13.700;2023-10-13T01:48:47;18.05;;;9.80;;
73859;SDS011;62197;51.632;13.700;2023-10-13T01:51:13;17.42;;;10.18;;
73859;SDS011;62197;51.632;13.700;2023-10-13T01:53:39;18.45;;;9.93;;
73859;SDS011;62197;51.632;13.700;2023-10-13T01:56:05;22.58;;;10.43;;
73859;SDS011;62197;51.632;13.700;2023-10-13T01:58:39;21.60;;;9.52;;
73859;SDS011;62197;51.632;13.700;2023-10-13T02:01:12;19.42;;;9.40;;
73859;SDS011;62197;51.632;13.700;2023-10-13T02:03:38;19.77;;;10.23;;
73859;SDS011;62197;51.632;13.700;2023-10-13T02:06:13;18.17;;;9.52;;
73859;SDS011;62197;51.632;13.700;2023-10-13T02:08:42;19.23;;;9.52;;
73859;SDS011;62197;51.632;13.700;2023-10-13T02:11:09;17.27;;;9.38;;
73859;SDS011;62197;51.632;13.700;2023-10-13T02:13:34;20.25;;;9.20;;
73859;SDS011;62197;51.632;13.700;2023-10-13T02:16:06;18.13;;;9.45;;
73859;SDS011;62197;51.632;13.700;2023-10-13T02:18:32;18.33;;;9.60;;
73859;SDS011;62197;51.632;13.700;2023-10-13T02:21:06;16.08;;;10.30;;
73859;SDS011;62197;51.632;13.700;2023-10-13T02:23:38;19.33;;;9.15;;
73859;SDS011;62197;51.632;13.700;2023-10-13T02:26:10;20.08;;;9.35;;
73859;SDS011;62197;51.632;13.700;2023-10-13T02:28:40;18.02;;;10.00;;
73859;SDS011;62197;51.632;13.700;2023-10-13T02:31:05;16.90;;;9.07;;
73859;SDS011;62197;51.632;13.700;2023-10-13T02:33:32;16.00;;;9.60;;
73859;SDS011;62197;51.632;13.700;2023-10-13T02:36:02;17.45;;;9.45;;
73859;SDS011;62197;51.632;13.700;2023-10-13T02:38:30;17.70;;;8.98;;
73859;SDS011;62197;51.632;13.700;2023-10-13T02:41:00;18.13;;;9.02;;
73859;SDS011;62197;51.632;13.700;2023-10-13T02:43:31;15.68;;;8.75;;
73859;SDS011;62197;51.632;13.700;2023-10-13T02:46:00;15.43;;;8.80;;
73859;SDS011;62197;51.632;13.700;2023-10-13T02:48:26;18.83;;;9.68;;
73859;SDS011;62197;51.632;13.700;2023-10-13T02:50:59;19.95;;;9.63;;
73859;SDS011;62197;51.632;13.700;2023-10-13T02:53:27;17.35;;;9.77;;
73859;SDS011;62197;51.632;13.700;2023-10-13T02:55:53;17.58;;;9.05;;
73859;SDS011;62197;51.632;13.700;2023-10-13T02:58:31;16.35;;;9.10;;
73859;SDS011;62197;51.632;13.700;2023-10-13T03:01:04;15.18;;;8.75;;
73859;SDS011;62197;51.632;13.700;2023-10-13T03:03:43;17.55;;;9.35;;
73859;SDS011;62197;51.632;13.700;2023-10-13T03:06:12;21.85;;;10.52;;
73859;SDS011;62197;51.632;13.700;2023-10-13T03:08:38;19.67;;;11.85;;
73859;SDS011;62197;51.632;13.700;2023-10-13T03:11:04;18.17;;;10.27;;
73859;SDS011;62197;51.632;13.700;2023-10-13T03:13:30;23.17;;;10.60;;
73859;SDS011;62197;51.632;13.700;2023-10-13T03:15:58;21.23;;;9.75;;
73859;SDS011;62197;51.632;13.700;2023-10-13T03:18:23;21.80;;;10.35;;
73859;SDS011;62197;51.632;13.700;2023-10-13T03:20:49;20.30;;;10.27;;
73859;SDS011;62197;51.632;13.700;2023-10-13T03:23:24;17.65;;;10.45;;
73859;SDS011;62197;51.632;13.700;2023-10-13T03:25:49;18.23;;;10.05;;
73859;SDS011;62197;51.632;13.700;2023-10-13T03:28:15;16.95;;;9.73;;
73859;SDS011;62197;51.632;13.700;2023-10-13T03:30:42;21.40;;;11.02;;
73859;SDS011;62197;51.632;13.700;2023-10-13T03:33:09;21.95;;;10.70;;
73859;SDS011;62197;51.632;13.700;2023-10-13T03:35:39;18.98;;;10.15;;
73859;SDS011;62197;51.632;13.700;2023-10-13T03:38:07;19.23;;;10.43;;
73859;SDS011;62197;51.632;13.700;2023-10-13T03:40:43;17.27;;;10.32;;
73859;SDS011;62197;51.632;13.700;2023-10-13T03:43:28;18.70;;;9.82;;
73859;SDS011;62197;51.632;13.700;2023-10-13T03:45:54;25.55;;;11.30;;
73859;SDS011;62197;51.632;13.700;2023-10-13T03:48:26;20.27;;;11.10;;
73859;SDS011;62197;51.632;13.700;2023-10-13T03:50:52;21.80;;;10.73;;
73859;SDS011;62197;51.632;13.700;2023-10-13T03:53:40;22.80;;;9.85;;
73859;SDS011;62197;51.632;13.700;2023-10-13T03:56:19;22.10;;;10.85;;
73859;SDS011;62197;51.632;13.700;2023-10-13T03:59:04;25.92;;;11.82;;
73859;SDS011;62197;51.632;13.700;2023-10-13T04:01:34;24.15;;;11.10;;
73859;SDS011;62197;51.632;13.700;2023-10-13T04:04:08;31.42;;;13.55;;
73859;SDS011;62197;51.632;13.700;2023-10-13T04:06:36;22.35;;;12.07;;
73859;SDS011;62197;51.632;13.700;2023-10-13T04:09:14;23.27;;;10.95;;
73859;SDS011;62197;51.632;13.700;2023-10-13T04:12:03;18.60;;;10.13;;
73859;SDS011;62197;51.632;13.700;2023-10-13T04:14:35;18.35;;;10.32;;
73859;SDS011;62197;51.632;13.700;2023-10-13T04:17:20;22.05;;;11.20;;
73859;SDS011;62197;51.632;13.700;2023-10-13T04:19:51;21.85;;;10.60;;
73859;SDS011;62197;51.632;13.700;2023-10-13T04:22:42;17.70;;;9.52;;
73859;SDS011;62197;51.632;13.700;2023-10-13T04:25:17;17.02;;;9.93;;
73859;SDS011;62197;51.632;13.700;2023-10-13T04:28:03;17.73;;;9.82;;
73859;SDS011;62197;51.632;13.700;2023-10-13T04:30:37;22.10;;;10.80;;
73859;SDS011;62197;51.632;13.700;2023-10-13T04:33:27;20.15;;;9.65;;
73859;SDS011;62197;51.632;13.700;2023-10-13T04:36:02;16.95;;;8.90;;
73859;SDS011;62197;51.632;13.700;2023-10-13T04:38:50;19.40;;;9.65;;
73859;SDS011;62197;51.632;13.700;2023-10-13T04:41:25;16.02;;;9.80;;
73859;SDS011;62197;51.632;13.700;2023-10-13T04:44:11;18.48;;;9.60;;
73859;SDS011;62197;51.632;13.700;2023-10-13T04:47:12;17.67;;;9.38;;
73859;SDS011;62197;51.632;13.700;2023-10-13T04:49:46;18.83;;;9.02;;
73859;SDS011;62197;51.632;13.700;2023-10-13T04:52:11;15.63;;;9.93;;
73859;SDS011;62197;51.632;13.700;2023-10-13T04:54:43;19.25;;;9.68;;
73859;SDS011;62197;51.632;13.700;2023-10-13T04:57:34;18.30;;;9.52;;
73859;SDS011;62197;51.632;13.700;2023-10-13T05:00:11;19.55;;;9.82;;
73859;SDS011;62197;51.632;13.700;2023-10-13T05:02:38;17.08;;;9.15;;
73859;SDS011;62197;51.632;13.700;2023-10-13T05:05:20;16.55;;;9.38;;
73859;SDS011;62197;51.632;13.700;2023-10-13T05:08:04;17.48;;;8.80;;
73859;SDS011;62197;51.632;13.700;2023-10-13T05:13:32;16.52;;;8.85;;
73859;SDS011;62197;51.632;13.700;2023-10-13T05:16:15;15.82;;;8.48;;
73859;SDS011;62197;51.632;13.700;2023-10-13T05:18:59;17.80;;;9.70;;
73859;SDS011;62197;51.632;13.700;2023-10-13T05:21:43;14.82;;;8.05;;
73859;SDS011;62197;51.632;13.700;2023-10-13T05:24:28;16.63;;;9.88;;
73859;SDS011;62197;51.632;13.700;2023-10-13T05:27:12;17.35;;;8.20;;
73859;SDS011;62197;51.632;13.700;2023-10-13T05:29:56;14.98;;;8.82;;
73859;SDS011;62197;51.632;13.700;2023-10-13T05:32:40;16.10;;;9.60;;
73859;SDS011;62197;51.632;13.700;2023-10-13T05:35:24;16.70;;;8.23;;
73859;SDS011;62197;51.632;13.700;2023-10-13T05:40:59;16.48;;;8.32;;
73859;SDS011;62197;51.632;13.700;2023-10-13T05:43:47;15.43;;;8.40;;
73859;SDS011;62197;51.632;13.700;2023-10-13T05:46:32;15.18;;;7.88;;
73859;SDS011;62197;51.632;13.700;2023-10-13T05:49:01;16.67;;;9.20;;
73859;SDS011;62197;51.632;13.700;2023-10-13T05:51:37;15.68;;;8.55;;
73859;SDS011;62197;51.632;13.700;2023-10-13T05:54:17;14.32;;;7.78;;
73859;SDS011;62197;51.632;13.700;2023-10-13T05:56:46;14.63;;;7.28;;
73859;SDS011;62197;51.632;13.700;2023-10-13T05:59:32;12.27;;;6.75;;
73859;SDS011;62197;51.632;13.700;2023-10-13T06:02:17;13.27;;;7.15;;
73859;SDS011;62197;51.632;13.700;2023-10-13T06:05:05;12.73;;;7.07;;
73859;SDS011;62197;51.632;13.700;2023-10-13T06:07:51;15.13;;;7.57;;
73859;SDS011;62197;51.632;13.700;2023-10-13T06:10:35;13.70;;;7.70;;
73859;SDS011;62197;51.632;13.700;2023-10-13T06:13:20;14.13;;;7.38;;
73859;SDS011;62197;51.632;13.700;2023-10-13T06:16:14;14.48;;;7.03;;
73859;SDS011;62197;51.632;13.700;2023-10-13T06:18:59;12.57;;;7.20;;
73859;SDS011;62197;51.632;13.700;2023-10-13T06:21:44;13.45;;;6.75;;
73859;SDS011;62197;51.632;13.700;2023-10-13T06:24:29;15.77;;;7.43;;
73859;SDS011;62197;51.632;13.700;2023-10-13T06:27:13;10.73;;;6.85;;
73859;SDS011;62197;51.632;13.700;2023-10-13T06:29:57;12.90;;;6.68;;
73859;SDS011;62197;51.632;13.700;2023-10-13T06:32:23;11.15;;;6.70;;
73859;SDS011;62197;51.632;13.700;2023-10-13T06:34:55;9.50;;;6.07;;
73859;SDS011;62197;51.632;13.700;2023-10-13T06:37:32;13.82;;;7.35;;
73859;SDS011;62197;51.632;13.700;2023-10-13T06:40:02;13.75;;;6.90;;
73859;SDS011;62197;51.632;13.700;2023-10-13T06:42:31;17.02;;;7.28;;
73859;SDS011;62197;51.632;13.700;2023-10-13T06:44:59;9.57;;;6.03;;
73859;SDS011;62197;51.632;13.700;2023-10-13T06:47:33;10.60;;;6.32;;
73859;SDS011;62197;51.632;13.700;2023-10-13T06:49:58;13.73;;;7.63;;
73859;SDS011;62197;51.632;13.700;2023-10-13T06:52:25;9.02;;;5.22;;
73859;SDS011;62197;51.632;13.700;2023-10-13T06:54:54;9.40;;;5.45;;
73859;SDS011;62197;51.632;13.700;2023-10-13T06:57:20;7.68;;;4.82;;
73859;SDS011;62197;51.632;13.700;2023-10-13T06:59:46;13.93;;;5.82;;
73859;SDS011;62197;51.632;13.700;2023-10-13T07:02:12;10.77;;;6.10;;
73859;SDS011;62197;51.632;13.700;2023-10-13T07:04:46;8.60;;;5.00;;
73859;SDS011;62197;51.632;13.700;2023-10-13T07:07:22;8.85;;;4.93;;
73859;SDS011;62197;51.632;13.700;2023-10-13T07:09:48;10.05;;;5.50;;
73859;SDS011;62197;51.632;13.700;2023-10-13T07:12:20;16.45;;;8.75;;
73859;SDS011;62197;51.632;13.700;2023-10-13T07:14:51;38.75;;;16.67;;
73859;SDS011;62197;51.632;13.700;2023-10-13T07:17:17;11.00;;;5.35;;
73859;SDS011;62197;51.632;13.700;2023-10-13T07:19:50;8.93;;;4.68;;
73859;SDS011;62197;51.632;13.700;2023-10-13T07:22:21;9.95;;;4.05;;
73859;SDS011;62197;51.632;13.700;2023-10-13T07:24:47;8.48;;;4.15;;
73859;SDS011;62197;51.632;13.700;2023-10-13T07:27:22;25.17;;;10.15;;
73859;SDS011;62197;51.632;13.700;2023-10-13T07:29:49;18.83;;;8.95;;
73859;SDS011;62197;51.632;13.700;2023-10-13T07:32:21;55.17;;;24.67;;
73859;SDS011;62197;51.632;13.700;2023-10-13T07:34:49;7.43;;;4.15;;
73859;SDS011;62197;51.632;13.700;2023-10-13T07:37:15;9.13;;;3.97;;
73859;SDS011;62197;51.632;13.700;2023-10-13T07:39:41;9.85;;;4.57;;
73859;SDS011;62197;51.632;13.700;2023-10-13T07:42:07;7.53;;;3.60;;
73859;SDS011;62197;51.632;13.700;2023-10-13T07:44:40;5.63;;;3.47;;
73859;SDS011;62197;51.632;13.700;2023-10-13T07:47:10;7.25;;;4.03;;
73859;SDS011;62197;51.632;13.700;2023-10-13T07:49:37;8.23;;;3.88;;
73859;SDS011;62197;51.632;13.700;2023-10-13T07:52:10;7.22;;;4.05;;
73859;SDS011;62197;51.632;13.700;2023-10-13T07:54:48;8.05;;;3.65;;
73859;SDS011;62197;51.632;13.700;2023-10-13T07:57:24;6.03;;;3.28;;
73859;SDS011;62197;51.632;13.700;2023-10-13T07:59:55;7.45;;;3.40;;
73859;SDS011;62197;51.632;13.700;2023-10-13T08:02:33;6.78;;;3.63;;
73859;SDS011;62197;51.632;13.700;2023-10-13T08:05:15;6.20;;;3.60;;
73859;SDS011;62197;51.632;13.700;2023-10-13T08:08:04;5.32;;;3.20;;
73859;SDS011;62197;51.632;13.700;2023-10-13T08:10:39;7.82;;;3.20;;
73859;SDS011;62197;51.632;13.700;2023-10-13T08:13:05;7.75;;;3.53;;
73859;SDS011;62197;51.632;13.700;2023-10-13T08:15:37;9.00;;;3.20;;
73859;SDS011;62197;51.632;13.700;2023-10-13T08:18:05;5.63;;;2.28;;
73859;SDS011;62197;51.632;13.700;2023-10-13T08:20:39;6.53;;;3.10;;
73859;SDS011;62197;51.632;13.700;2023-10-13T08:23:05;7.47;;;3.15;;
73859;SDS011;62197;51.632;13.700;2023-10-13T08:25:40;7.05;;;3.20;;
73859;SDS011;62197;51.632;13.700;2023-10-13T08:28:24;7.18;;;3.38;;
73859;SDS011;62197;51.632;13.700;2023-10-13T08:31:08;7.50;;;3.08;;
73859;SDS011;62197;51.632;13.700;2023-10-13T08:33:47;5.10;;;2.95;;
73859;SDS011;62197;51.632;13.700;2023-10-13T08:36:15;6.32;;;3.25;;
73859;SDS011;62197;51.632;13.700;2023-10-13T08:38:52;3.75;;;2.25;;
73859;SDS011;62197;51.632;13.700;2023-10-13T08:41:20;5.65;;;3.10;;
73859;SDS011;62197;51.632;13.700;2023-10-13T08:43:49;5.15;;;2.85;;
73859;SDS011;62197;51.632;13.700;2023-10-13T08:46:16;7.90;;;3.88;;
73859;SDS011;62197;51.632;13.700;2023-10-13T08:48:55;6.25;;;2.58;;
73859;SDS011;62197;51.632;13.700;2023-10-13T08:51:42;5.85;;;3.00;;
73859;SDS011;62197;51.632;13.700;2023-10-13T08:54:15;5.63;;;2.10;;
73859;SDS011;62197;51.632;13.700;2023-10-13T08:56:46;4.72;;;2.55;;
73859;SDS011;62197;51.632;13.700;2023-10-13T08:59:19;4.95;;;2.85;;
73859;SDS011;62197;51.632;13.700;2023-10-13T09:02:12;5.57;;;2.20;;
73859;SDS011;62197;51.632;13.700;2023-10-13T09:04:43;7.13;;;2.92;;
73859;SDS011;62197;51.632;13.700;2023-10-13T09:07:12;7.97;;;2.58;;
73859;SDS011;62197;51.632;13.700;2023-10-13T09:12:12;4.25;;;2.40;;
73859;SDS011;62197;51.632;13.700;2023-10-13T09:14:54;4.53;;;2.15;;
73859;SDS011;62197;51.632;13.700;2023-10-13T09:17:24;4.50;;;2.47;;
73859;SDS011;62197;51.632;13.700;2023-10-13T09:20:03;3.85;;;2.10;;
73859;SDS011;62197;51.632;13.700;2023-10-13T09:22:50;4.85;;;2.58;;
73859;SDS011;62197;51.632;13.700;2023-10-13T09:25:29;5.28;;;2.55;;
73859;SDS011;62197;51.632;13.700;2023-10-13T09:27:59;4.47;;;2.33;;
73859;SDS011;62197;51.632;13.700;2023-10-13T09:30:25;3.97;;;2.35;;
73859;SDS011;62197;51.632;13.700;2023-10-13T09:33:00;6.85;;;3.55;;
73859;SDS011;62197;51.632;13.700;2023-10-13T09:35:40;4.32;;;2.22;;
73859;SDS011;62197;51.632;13.700;2023-10-13T09:38:13;4.53;;;2.10;;
73859;SDS011;62197;51.632;13.700;2023-10-13T09:40:40;5.63;;;2.08;;
73859;SDS011;62197;51.632;13.700;2023-10-13T09:43:11;5.13;;;2.38;;
73859;SDS011;62197;51.632;13.700;2023-10-13T09:45:40;6.28;;;2.35;;
73859;SDS011;62197;51.632;13.700;2023-10-13T09:48:30;6.75;;;2.53;;
73859;SDS011;62197;51.632;13.700;2023-10-13T09:50:58;5.55;;;2.30;;
73859;SDS011;62197;51.632;13.700;2023-10-13T09:53:31;4.82;;;2.00;;
73859;SDS011;62197;51.632;13.700;2023-10-13T09:56:03;5.00;;;2.03;;
73859;SDS011;62197;51.632;13.700;2023-10-13T09:59:06;4.68;;;2.17;;
73859;SDS011;62197;51.632;13.700;2023-10-13T10:01:40;4.80;;;3.03;;
73859;SDS011;62197;51.632;13.700;2023-10-13T10:04:22;6.75;;;2.55;;
73859;SDS011;62197;51.632;13.700;2023-10-13T10:06:54;3.28;;;2.17;;
73859;SDS011;62197;51.632;13.700;2023-10-13T10:09:28;5.03;;;2.55;;
73859;SDS011;62197;51.632;13.700;2023-10-13T10:12:19;4.18;;;2.22;;
73859;SDS011;62197;51.632;13.700;2023-10-13T10:17:37;7.20;;;2.75;;
73859;SDS011;62197;51.632;13.700;2023-10-13T10:20:04;3.13;;;2.03;;
73859;SDS011;62197;51.632;13.700;2023-10-13T10:22:39;3.72;;;2.10;;
73859;SDS011;62197;51.632;13.700;2023-10-13T10:25:09;3.38;;;2.20;;
73859;SDS011;62197;51.632;13.700;2023-10-13T10:27:59;4.63;;;2.22;;
73859;SDS011;62197;51.632;13.700;2023-10-13T10:30:32;4.18;;;2.42;;
73859;SDS011;62197;51.632;13.700;2023-10-13T10:33:00;6.63;;;2.13;;
73859;SDS011;62197;51.632;13.700;2023-10-13T10:35:37;4.90;;;2.15;;
73859;SDS011;62197;51.632;13.700;2023-10-13T10:38:08;4.65;;;2.17;;
73859;SDS011;62197;51.632;13.700;2023-10-13T10:40:53;7.07;;;2.42;;
73859;SDS011;62197;51.632;13.700;2023-10-13T10:48:41;6.93;;;2.35;;
73859;SDS011;62197;51.632;13.700;2023-10-13T10:51:09;7.25;;;3.03;;
73859;SDS011;62197;51.632;13.700;2023-10-13T10:53:51;6.30;;;2.63;;
73859;SDS011;62197;51.632;13.700;2023-10-13T10:56:26;6.30;;;2.53;;
73859;SDS011;62197;51.632;13.700;2023-10-13T10:59:00;7.05;;;3.33;;
73859;SDS011;62197;51.632;13.700;2023-10-13T11:01:27;7.00;;;3.67;;
73859;SDS011;62197;51.632;13.700;2023-10-13T11:03:59;6.93;;;2.83;;
73859;SDS011;62197;51.632;13.700;2023-10-13T11:06:33;7.95;;;3.35;;
73859;SDS011;62197;51.632;13.700;2023-10-13T11:09:07;8.10;;;4.05;;
73859;SDS011;62197;51.632;13.700;2023-10-13T11:11:51;7.70;;;3.55;;
73859;SDS011;62197;51.632;13.700;2023-10-13T11:14:28;6.70;;;3.92;;
73859;SDS011;62197;51.632;13.700;2023-10-13T11:16:55;7.50;;;3.63;;
73859;SDS011;62197;51.632;13.700;2023-10-13T11:19:37;8.40;;;3.65;;
73859;SDS011;62197;51.632;13.700;2023-10-13T11:22:16;8.50;;;3.25;;
73859;SDS011;62197;51.632;13.700;2023-10-13T11:24:57;7.65;;;3.95;;
73859;SDS011;62197;51.632;13.700;2023-10-13T11:27:28;8.32;;;3.70;;
73859;SDS011;62197;51.632;13.700;2023-10-13T11:30:10;9.27;;;3.13;;
73859;SDS011;62197;51.632;13.700;2023-10-13T11:32:39;9.25;;;3.53;;
73859;SDS011;62197;51.632;13.700;2023-10-13T11:35:07;8.45;;;2.90;;
73859;SDS011;62197;51.632;13.700;2023-10-13T11:37:50;9.55;;;3.63;;
73859;SDS011;62197;51.632;13.700;2023-10-13T11:40:29;7.57;;;3.80;;
73859;SDS011;62197;51.632;13.700;2023-10-13T11:43:33;10.98;;;4.75;;
73859;SDS011;62197;51.632;13.700;2023-10-13T11:46:11;12.48;;;3.80;;
73859;SDS011;62197;51.632;13.700;2023-10-13T11:48:41;8.23;;;3.15;;
73859;SDS011;62197;51.632;13.700;2023-10-13T11:51:14;8.20;;;3.47;;
73859;SDS011;62197;51.632;13.700;2023-10-13T11:53:48;7.15;;;3.53;;
73859;SDS011;62197;51.632;13.700;2023-10-13T11:56:17;10.18;;;4.40;;
73859;SDS011;62197;51.632;13.700;2023-10-13T11:58:45;10.80;;;3.42;;
73859;SDS011;62197;51.632;13.700;2023-10-13T12:01:11;10.70;;;3.83;;
73859;SDS011;62197;51.632;13.700;2023-10-13T12:03:37;10.18;;;4.03;;
73859;SDS011;62197;51.632;13.700;2023-10-13T12:06:21;7.95;;;3.53;;
73859;SDS011;62197;51.632;13.700;2023-10-13T12:09:08;7.68;;;3.53;;
73859;SDS011;62197;51.632;13.700;2023-10-13T12:11:43;8.30;;;3.42;;
73859;SDS011;62197;51.632;13.700;2023-10-13T12:14:10;10.85;;;3.53;;
73859;SDS011;62197;51.632;13.700;2023-10-13T12:19:07;9.55;;;3.22;;
73859;SDS011;62197;51.632;13.700;2023-10-13T12:21:36;6.70;;;3.28;;
73859;SDS011;62197;51.632;13.700;2023-10-13T12:24:02;10.57;;;3.15;;
73859;SDS011;62197;51.632;13.700;2023-10-13T12:26:28;7.25;;;3.10;;
73859;SDS011;62197;51.632;13.700;2023-10-13T12:28:58;8.73;;;3.33;;
73859;SDS011;62197;51.632;13.700;2023-10-13T12:31:31;7.50;;;3.00;;
73859;SDS011;62197;51.632;13.700;2023-10-13T12:33:57;7.10;;;3.50;;
73859;SDS011;62197;51.632;13.700;2023-10-13T12:36:31;10.23;;;3.10;;
73859;SDS011;62197;51.632;13.700;2023-10-13T12:39:06;7.30;;;3.22;;
73859;SDS011;62197;51.632;13.700;2023-10-13T12:41:31;5.63;;;3.53;;
73859;SDS011;62197;51.632;13.700;2023-10-13T12:46:58;8.63;;;3.30;;
73859;SDS011;62197;51.632;13.700;2023-10-13T12:49:42;6.82;;;3.28;;
73859;SDS011;62197;51.632;13.700;2023-10-13T12:52:11;9.77;;;3.80;;
73859;SDS011;62197;51.632;13.700;2023-10-13T12:54:56;8.25;;;4.43;;
73859;SDS011;62197;51.632;13.700;2023-10-13T12:57:22;12.30;;;3.00;;
73859;SDS011;62197;51.632;13.700;2023-10-13T12:59:51;9.35;;;3.28;;
73859;SDS011;62197;51.632;13.700;2023-10-13T13:02:20;9.02;;;3.10;;
73859;SDS011;62197;51.632;13.700;2023-10-13T13:04:45;9.40;;;3.60;;
73859;SDS011;62197;51.632;13.700;2023-10-13T13:07:13;7.93;;;3.38;;
73859;SDS011;62197;51.632;13.700;2023-10-13T13:09:41;7.03;;;3.00;;
73859;SDS011;62197;51.632;13.700;2023-10-13T13:12:07;7.68;;;3.33;;
73859;SDS011;62197;51.632;13.700;2023-10-13T13:14:32;7.70;;;2.92;;
73859;SDS011;62197;51.632;13.700;2023-10-13T13:16:59;8.43;;;2.70;;
73859;SDS011;62197;51.632;13.700;2023-10-13T13:19:35;9.15;;;3.70;;
73859;SDS011;62197;51.632;13.700;2023-10-13T13:22:04;11.13;;;2.92;;
73859;SDS011;62197;51.632;13.700;2023-10-13T13:24:41;8.80;;;3.53;;
73859;SDS011;62197;51.632;13.700;2023-10-13T13:27:10;11.50;;;3.30;;
73859;SDS011;62197;51.632;13.700;2023-10-13T13:29:38;7.28;;;3.08;;
73859;SDS011;62197;51.632;13.700;2023-10-13T13:32:07;12.27;;;3.67;;
73859;SDS011;62197;51.632;13.700;2023-10-13T13:34:42;7.30;;;3.38;;
73859;SDS011;62197;51.632;13.700;2023-10-13T13:37:08;7.53;;;2.78;;
73859;SDS011;62197;51.632;13.700;2023-10-13T13:39:37;11.05;;;3.22;;
73859;SDS011;62197;51.632;13.700;2023-10-13T13:42:08;8.55;;;3.55;;
73859;SDS011;62197;51.632;13.700;2023-10-13T13:44:34;8.48;;;3.33;;
73859;SDS011;62197;51.632;13.700;2023-10-13T13:47:03;10.02;;;2.80;;
73859;SDS011;62197;51.632;13.700;2023-10-13T13:49:37;9.32;;;2.92;;
73859;SDS011;62197;51.632;13.700;2023-10-13T13:52:05;6.47;;;3.75;;
73859;SDS011;62197;51.632;13.700;2023-10-13T13:54:31;6.55;;;2.95;;
73859;SDS011;62197;51.632;13.700;2023-10-13T13:56:57;9.63;;;3.92;;
73859;SDS011;62197;51.632;13.700;2023-10-13T13:59:22;13.45;;;3.83;;
73859;SDS011;62197;51.632;13.700;2023-10-13T14:01:48;5.70;;;3.08;;
73859;SDS011;62197;51.632;13.700;2023-10-13T14:04:13;7.13;;;4.03;;
73859;SDS011;62197;51.632;13.700;2023-10-13T14:06:42;9.73;;;3.65;;
73859;SDS011;62197;51.632;13.700;2023-10-13T14:09:09;9.65;;;3.53;;
73859;SDS011;62197;51.632;13.700;2023-10-13T14:11:57;12.00;;;3.47;;
73859;SDS011;62197;51.632;13.700;2023-10-13T14:14:42;10.40;;;4.57;;
73859;SDS011;62197;51.632;13.700;2023-10-13T14:17:12;9.93;;;3.92;;
73859;SDS011;62197;51.632;13.700;2023-10-13T14:19:37;12.57;;;3.75;;
73859;SDS011;62197;51.632;13.700;2023-10-13T14:22:06;9.52;;;3.25;;
73859;SDS011;62197;51.632;13.700;2023-10-13T14:24:32;9.48;;;3.45;;
73859;SDS011;62197;51.632;13.700;2023-10-13T14:27:02;8.13;;;3.45;;
73859;SDS011;62197;51.632;13.700;2023-10-13T14:29:40;12.57;;;3.15;;
73859;SDS011;62197;51.632;13.700;2023-10-13T14:32:07;10.25;;;4.93;;
73859;SDS011;62197;51.632;13.700;2023-10-13T14:34:37;11.98;;;3.60;;
73859;SDS011;62197;51.632;13.700;2023-10-13T14:37:03;10.50;;;3.42;;
73859;SDS011;62197;51.632;13.700;2023-10-13T14:39:29;10.32;;;3.58;;
73859;SDS011;62197;51.632;13.700;2023-10-13T14:41:55;9.77;;;3.55;;
73859;SDS011;62197;51.632;13.700;2023-10-13T14:44:20;10.27;;;3.42;;
73859;SDS011;62197;51.632;13.700;2023-10-13T14:46:50;10.95;;;3.10;;
73859;SDS011;62197;51.632;13.700;2023-10-13T14:49:19;7.93;;;3.65;;
73859;SDS011;62197;51.632;13.700;2023-10-13T14:51:45;9.23;;;3.22;;
73859;SDS011;62197;51.632;13.700;2023-10-13T14:54:10;10.45;;;3.88;;
73859;SDS011;62197;51.632;13.700;2023-10-13T14:56:35;7.75;;;3.28;;
73859;SDS011;62197;51.632;13.700;2023-10-13T14:59:01;9.95;;;3.40;;
73859;SDS011;62197;51.632;13.700;2023-10-13T15:01:29;6.70;;;3.08;;
73859;SDS011;62197;51.632;13.700;2023-10-13T15:03:55;10.25;;;3.47;;
73859;SDS011;62197;51.632;13.700;2023-10-13T15:06:21;8.80;;;3.10;;
73859;SDS011;62197;51.632;13.700;2023-10-13T15:08:54;8.57;;;3.55;;
73859;SDS011;62197;51.632;13.700;2023-10-13T15:11:20;11.20;;;3.28;;
73859;SDS011;62197;51.632;13.700;2023-10-13T15:13:46;7.40;;;3.10;;
73859;SDS011;62197;51.632;13.700;2023-10-13T15:16:15;11.40;;;3.90;;
73859;SDS011;62197;51.632;13.700;2023-10-13T15:18:43;9.57;;;3.83;;
73859;SDS011;62197;51.632;13.700;2023-10-13T15:21:09;8.13;;;3.10;;